Time;durP1;ratioP1;P1;durP2;ratioP2;P2;SDS_P1;SDS_P2;PMS_P1;PMS_P2;Temp;Humidity;BMP_temperature;BMP_pressure;BME280_temperature;BME280_humidity;BME280_pressure;Samples;Min_cycle;Max_cycle;Signal;HPM_P1;HPM_P2
2022/05/27 00:01:17;;;;;;;1.10;1.00;;;18.40;65.10;;;19.02;45.14;99259.84;4848800;29;113123;-89
2022/05/27 00:04:04;;;;;;;2.87;1.30;;;18.40;65.10;;;19.00;45.21;99259.41;4861209;29;113534;-90
2022/05/27 00:06:50;;;;;;;1.27;1.10;;;18.40;65.20;;;18.96;45.30;99270.47;4869085;29;121918;-90
2022/05/27 00:09:23;;;;;;;1.20;1.10;;;18.40;65.20;;;18.95;45.30;99266.06;4865899;29;122795;-90
2022/05/27 00:12:27;;;;;;;3.83;1.43;;;18.40;65.30;;;18.89;45.39;99268.31;4862597;28;114765;-91
2022/05/27 00:15:12;;;;;;;1.60;1.20;;;18.40;65.30;;;18.87;45.65;99270.66;4867064;29;114478;-90
2022/05/27 00:17:59;;;;;;;1.17;1.07;;;18.40;65.40;;;18.83;45.56;99264.13;4882649;28;123161;-89
2022/05/27 00:21:04;;;;;;;2.53;1.30;;;18.30;65.40;;;18.79;45.57;99262.41;4870299;28;124175;-91
2022/05/27 00:23:32;;;;;;;1.50;1.00;;;18.30;65.60;;;18.76;45.68;99261.13;4891450;28;114103;-91
2022/05/27 00:26:00;;;;;;;1.60;1.30;;;18.30;65.60;;;18.74;45.81;99255.88;4886662;28;113150;-90
2022/05/27 00:28:29;;;;;;;1.77;1.03;;;18.20;65.70;;;18.70;45.83;99259.72;4887499;28;123995;-90
2022/05/27 00:34:39;;;;;;;1.00;0.90;;;18.20;65.90;;;18.53;46.07;99253.22;4893986;28;115372;-90
2022/05/27 00:37:26;;;;;;;1.20;1.10;;;17.90;65.80;;;18.49;46.28;99255.13;4890985;28;114178;-91
2022/05/27 00:43:39;;;;;;;2.50;1.33;;;18.10;66.40;;;18.38;46.35;99255.97;4900782;28;124239;-89
2022/05/27 00:46:14;;;;;;;1.53;1.30;;;17.90;66.40;;;18.33;46.66;99252.25;4888680;28;114135;-90
2022/05/27 00:48:44;;;;;;;1.87;1.10;;;17.90;66.60;;;18.28;46.88;99249.69;4890504;28;113244;-89
2022/05/27 00:51:29;;;;;;;1.30;1.10;;;17.90;66.70;;;18.26;46.67;99240.03;4858422;29;123108;-90
2022/05/27 00:54:33;;;;;;;1.30;1.20;;;17.80;66.80;;;18.21;46.95;99231.88;4861695;28;124086;-91
2022/05/27 00:57:16;;;;;;;2.87;1.60;;;17.80;67.00;;;18.18;47.01;99236.19;4894178;28;114852;-89
2022/05/27 00:59:57;;;;;;;1.73;1.47;;;17.80;67.20;;;18.15;47.12;99233.28;4875316;28;111704;-90
2022/05/27 01:03:21;;;;;;;3.13;1.30;;;17.70;67.20;;;18.09;47.16;99241.09;4890506;28;123944;-91
2022/05/27 01:05:49;;;;;;;3.40;1.60;;;17.70;67.50;;;18.05;47.24;99229.81;4873552;29;124344;-90
2022/05/27 01:08:35;;;;;;;1.70;1.20;;;17.60;67.50;;;18.03;47.31;99229.34;4874354;29;115066;-91
2022/05/27 01:22:30;;;;;;;1.33;1.20;;;17.50;68.10;;;17.82;47.85;99231.47;4899390;28;115322;-90
2022/05/27 01:28:53;;;;;;;1.63;1.00;;;17.40;68.50;;;17.73;48.07;99228.78;4888642;28;125133;-89
2022/05/27 01:36:03;;;;;;;1.57;1.27;;;17.30;68.70;;;17.63;48.30;99234.81;4880468;29;115317;-89
2022/05/27 01:42:34;;;;;;;1.50;1.30;;;17.20;69.10;;;17.58;48.44;99221.88;4882386;28;125100;-89
2022/05/27 01:45:26;;;;;;;1.17;1.07;;;17.20;69.30;;;17.59;48.54;99223.50;4884678;28;124449;-89
2022/05/27 01:48:51;;;;;;;1.43;1.27;;;17.20;69.40;;;17.58;48.57;99227.47;4877838;29;113240;-90
2022/05/27 01:51:46;;;;;;;1.60;1.03;;;17.20;69.60;;;17.55;48.75;99227.38;4892543;28;113534;-89
2022/05/27 01:54:30;;;;;;;1.53;1.27;;;17.20;69.70;;;17.54;48.78;99223.72;4881648;28;123996;-89
2022/05/27 01:57:27;;;;;;;1.30;1.20;;;17.20;69.90;;;17.52;48.92;99220.50;4857604;29;123608;-89
2022/05/27 02:00:14;;;;;;;1.40;1.10;;;17.10;69.90;;;17.54;48.69;99217.34;4884954;28;114841;-91
2022/05/27 02:03:16;;;;;;;1.20;1.00;;;17.10;70.00;;;17.50;48.91;99214.44;4894347;28;113887;-90
2022/05/27 02:06:15;;;;;;;1.80;1.20;;;17.10;70.10;;;17.49;48.85;99209.19;4878557;28;123868;-89
2022/05/27 02:12:37;;;;;;;1.40;1.10;;;17.10;70.40;;;17.47;49.18;99208.75;4901221;28;116328;-89
2022/05/27 02:18:54;;;;;;;1.43;1.20;;;17.00;70.60;;;17.43;49.16;99205.81;4902773;28;125108;-89
2022/05/27 02:21:45;;;;;;;1.67;1.20;;;17.00;70.80;;;17.43;49.17;99203.00;4882744;28;124376;-90
2022/05/27 02:28:24;;;;;;;1.60;1.20;;;17.00;71.00;;;17.43;49.23;99203.81;4904232;28;114917;-90
2022/05/27 02:41:06;;;;;;;1.77;1.30;;;17.00;71.50;;;17.41;49.46;99188.59;4903890;28;114944;-90
2022/05/27 02:44:30;;;;;;;1.10;1.00;;;16.90;71.50;;;17.39;49.38;99185.34;4900589;28;123830;-90
2022/05/27 02:51:36;;;;;;;1.83;1.13;;;16.90;71.80;;;17.31;49.60;99181.50;4885106;28;115332;-88
2022/05/27 02:54:59;;;;;;;1.30;1.00;;;17.00;72.00;;;17.32;49.61;99173.91;4883961;29;113812;-89
2022/05/27 03:01:08;;;;;;;1.33;1.10;;;16.90;72.20;;;17.35;49.81;99192.78;4884214;29;124202;-88
2022/05/27 03:03:53;;;;;;;1.30;0.90;;;16.90;72.40;;;17.38;49.81;99184.53;4884839;28;114352;-89
2022/05/27 03:10:41;;;;;;;1.23;1.10;;;16.90;72.50;;;17.39;49.59;99193.72;4902364;28;125131;-90
2022/05/27 03:14:06;;;;;;;1.10;1.00;;;16.90;72.70;;;17.38;49.69;99187.31;4898781;28;125084;-89
2022/05/27 03:28:58;;;;;;;1.37;1.27;;;16.80;73.10;;;17.30;49.99;99187.41;4882334;29;124300;-91
2022/05/27 03:32:23;;;;;;;1.30;1.17;;;16.80;73.20;;;17.31;50.09;99183.47;4822016;29;115117;-89
2022/05/27 03:38:41;;;;;;;1.53;1.37;;;16.90;73.60;;;17.33;50.19;99184.75;4829256;29;125196;-89
2022/05/27 03:45:02;;;;;;;2.23;1.90;;;16.80;73.70;;;17.30;49.85;99193.00;4845201;29;115416;-89
2022/05/27 03:48:08;;;;;;;1.97;1.37;;;16.80;73.80;;;17.29;50.17;99196.97;4824676;29;113472;-90
2022/05/27 03:51:20;;;;;;;2.07;1.27;;;16.80;74.00;;;17.26;50.16;99198.47;4840307;29;123656;-89
2022/05/27 03:57:48;;;;;;;5.53;1.30;;;16.80;74.20;;;17.26;50.52;99197.66;4843443;29;115333;-90
2022/05/27 04:00:16;;;;;;;2.00;1.50;;;16.70;74.30;;;17.27;50.53;99199.28;4842256;29;112707;-90
2022/05/27 04:02:46;;;;;;;1.50;1.33;;;16.70;74.30;;;17.27;50.45;99193.69;4857038;29;124663;-91
2022/05/27 04:16:39;;;;;;;2.50;1.37;;;16.80;74.80;;;17.26;50.57;99198.47;4880134;29;125023;-89
2022/05/27 04:19:09;;;;;;;2.70;1.37;;;16.80;74.90;;;17.28;50.83;99189.75;4871385;28;124292;-90
2022/05/27 04:21:37;;;;;;;1.77;1.40;;;16.80;75.20;;;17.30;50.67;99193.00;4880409;28;113015;-90
2022/05/27 04:27:46;;;;;;;1.60;1.50;;;16.80;75.30;;;17.29;50.71;99196.97;4899030;28;125405;-89
2022/05/27 04:30:53;;;;;;;2.03;1.50;;;16.80;75.40;;;17.29;50.66;99200.56;4884672;28;122853;-89
2022/05/27 04:33:19;;;;;;;1.50;1.30;;;16.80;75.60;;;17.35;50.63;99195.56;4861552;29;114175;-90
2022/05/27 04:39:28;;;;;;;1.50;1.30;;;16.90;75.80;;;17.36;50.86;99206.41;4875653;29;125128;-90
2022/05/27 04:42:14;;;;;;;1.60;1.50;;;16.80;75.80;;;17.39;50.76;99194.53;4879997;28;122039;-89
2022/05/27 04:44:42;;;;;;;1.63;1.47;;;16.90;76.10;;;17.42;50.94;99190.22;4893256;28;116397;-89
2022/05/27 04:47:09;;;;;;;2.23;1.67;;;16.90;76.10;;;17.43;51.02;99191.84;4872666;28;113391;-90
2022/05/27 04:49:51;;;;;;;2.83;1.40;;;16.90;76.20;;;17.44;51.01;99185.09;4886895;28;123656;-90
2022/05/27 04:52:30;;;;;;;1.70;1.27;;;16.90;76.20;;;17.46;50.83;99188.34;4889600;28;123508;-89
2022/05/27 04:54:59;;;;;;;1.93;1.63;;;16.90;76.30;;;17.48;51.05;99188.81;4890578;28;114967;-91
2022/05/27 05:01:28;;;;;;;2.50;1.87;;;17.00;76.50;;;17.50;50.93;99197.66;4888125;28;125067;-90
2022/05/27 05:03:59;;;;;;;2.30;1.87;;;17.00;76.50;;;17.53;51.28;99201.75;4878359;28;123419;-89
2022/05/27 05:07:24;;;;;;;1.80;1.63;;;17.00;76.60;;;17.53;51.03;99196.16;4885499;28;113621;-89
2022/05/27 05:09:52;;;;;;;2.90;1.63;;;17.10;76.70;;;17.56;51.00;99198.25;4884162;28;114762;-90
2022/05/27 05:12:22;;;;;;;1.60;1.50;;;17.10;76.70;;;17.61;50.96;99215.59;4866624;28;123998;-89
2022/05/27 05:15:09;;;;;;;2.40;2.10;;;17.10;76.70;;;17.65;50.60;99222.13;4865809;28;123154;-89
2022/05/27 05:17:36;;;;;;;2.40;1.60;;;17.20;76.80;;;17.65;50.78;99210.94;4867109;28;115318;-90
2022/05/27 05:20:04;;;;;;;1.87;1.30;;;17.10;76.70;;;17.70;50.79;99223.03;4893015;28;115062;-90
2022/05/27 05:22:31;;;;;;;1.97;1.37;;;17.20;76.80;;;17.74;50.98;99215.59;4884396;28;123716;-91
2022/05/27 05:25:35;;;;;;;1.53;1.43;;;17.20;76.90;;;17.77;50.65;99212.91;4884616;28;124315;-90
2022/05/27 05:28:04;;;;;;;1.53;1.40;;;17.20;76.90;;;17.83;50.80;99213.53;4867335;28;113645;-90
2022/05/27 05:30:50;;;;;;;3.53;1.40;;;17.20;77.00;;;17.86;50.51;99210.03;4868111;28;113056;-89
2022/05/27 05:33:17;;;;;;;1.50;1.40;;;17.30;77.10;;;17.87;50.67;99211.66;4883280;28;124528;-89
2022/05/27 05:35:46;;;;;;;3.50;1.80;;;17.30;77.20;;;17.90;50.90;99216.56;4882621;28;122922;-89
2022/05/27 05:38:14;;;;;;;1.60;1.50;;;17.30;77.30;;;17.94;50.88;99217.47;4882073;28;113675;-89
2022/05/27 05:41:01;;;;;;;1.87;1.67;;;15.40;75.50;;;17.96;50.96;99217.94;4887913;28;112536;-90
2022/05/27 05:43:29;;;;;;;2.93;2.03;;;17.40;77.50;;;17.98;51.04;99226.78;4869954;28;122288;-90
2022/05/27 05:45:56;;;;;;;1.70;1.60;;;17.40;77.70;;;17.96;50.88;99229.13;4885991;28;123277;-91
2022/05/27 05:48:23;;;;;;;4.77;1.60;;;17.40;77.70;;;17.97;50.88;99222.34;4868451;28;113700;-90
2022/05/27 05:50:50;;;;;;;2.50;1.40;;;17.40;77.70;;;17.98;51.05;99224.00;4856121;28;112999;-89
2022/05/27 05:53:56;;;;;;;3.00;1.67;;;17.40;77.80;;;17.94;51.15;99219.44;4885371;28;123244;-90
2022/05/27 05:57:01;;;;;;;2.77;1.77;;;17.40;77.80;;;17.90;51.27;99219.34;4885711;28;124498;-90
2022/05/27 05:59:48;;;;;;;5.10;2.00;;;17.40;77.90;;;17.88;51.20;99224.47;4879726;28;113787;-90
2022/05/27 06:02:14;;;;;;;1.87;1.70;;;17.40;78.00;;;17.91;51.41;99215.38;4862328;28;114001;-90
2022/05/27 06:05:03;;;;;;;1.97;1.87;;;17.40;78.10;;;17.90;51.29;99222.16;4878582;28;123285;-90
2022/05/27 06:07:52;;;;;;;2.07;1.80;;;17.40;78.20;;;17.90;51.31;99221.34;4861490;28;124917;-90
2022/05/27 06:10:56;;;;;;;2.00;1.80;;;17.40;78.30;;;17.88;51.48;99216.09;4876766;28;115442;-91
2022/05/27 06:13:26;;;;;;;2.63;2.00;;;17.40;78.40;;;17.92;51.51;99214.22;4863459;28;113392;-91
2022/05/27 06:15:53;;;;;;;4.37;1.93;;;17.40;78.60;;;17.96;51.45;99217.94;4875194;28;123347;-90
2022/05/27 06:18:19;;;;;;;2.70;1.80;;;17.40;78.60;;;18.00;51.57;99218.88;4877936;28;123997;-91
2022/05/27 06:20:46;;;;;;;2.17;1.60;;;17.50;78.70;;;18.03;51.52;99214.56;4877402;28;113739;-90
2022/05/27 06:23:13;;;;;;;3.10;1.80;;;17.50;78.70;;;18.05;51.53;99221.44;4861554;28;114103;-90
2022/05/27 06:25:40;;;;;;;2.30;1.77;;;17.50;78.80;;;18.07;51.29;99216.28;4881269;28;124890;-90
2022/05/27 06:36:31;;;;;;;2.10;1.80;;;17.70;79.00;;;18.21;51.25;99215.91;4870837;28;124112;-91
2022/05/27 06:39:14;;;;;;;1.30;1.20;;;17.60;78.90;;;18.25;51.10;99221.63;4865703;28;123853;-89
2022/05/27 06:42:18;;;;;;;1.53;1.43;;;17.70;78.90;;;18.25;51.56;99216.84;4866147;28;114157;-90
2022/05/27 06:44:44;;;;;;;1.70;1.37;;;17.70;78.80;;;18.30;51.18;99224.97;4864697;28;113571;-91
2022/05/27 06:47:32;;;;;;;1.83;1.63;;;17.70;78.90;;;18.36;51.15;99233.13;4863135;28;123906;-92
2022/05/27 06:50:00;;;;;;;1.93;1.80;;;17.80;79.00;;;18.35;51.31;99232.31;4866302;28;123962;-92
2022/05/27 06:52:30;;;;;;;2.17;1.90;;;17.80;79.00;;;18.34;51.17;99233.47;4883100;28;114209;-93
2022/05/27 06:54:56;;;;;;;2.33;2.10;;;17.80;79.00;;;18.34;51.27;99233.47;4867768;28;113684;-93
2022/05/27 06:57:24;;;;;;;1.50;1.40;;;17.80;79.00;;;18.36;51.29;99238.72;4881370;28;123563;-92
2022/05/27 07:00:12;;;;;;;2.43;1.93;;;17.80;79.10;;;18.40;51.22;99236.84;4866693;28;123390;-93
2022/05/27 07:03:16;;;;;;;1.40;1.30;;;17.90;79.30;;;18.40;51.13;99237.66;4882115;28;114980;-92
2022/05/27 07:05:42;;;;;;;1.67;1.57;;;17.80;79.30;;;18.44;51.35;99240.56;4867394;29;113998;-90
2022/05/27 07:08:12;;;;;;;1.57;1.47;;;17.90;79.60;;;18.45;51.54;99237.41;4865215;29;123377;-91
2022/05/27 07:10:40;;;;;;;2.03;1.70;;;17.90;79.60;;;18.47;51.54;99232.28;4860796;29;123887;-89
2022/05/27 07:13:44;;;;;;;2.07;1.87;;;17.90;79.60;;;18.42;51.41;99238.09;4866351;28;113583;-91
2022/05/27 07:16:10;;;;;;;2.43;2.20;;;17.90;79.70;;;18.36;51.39;99239.53;4880514;28;114075;-90
2022/05/27 07:18:38;;;;;;;3.60;2.00;;;17.90;79.70;;;18.27;51.62;99230.47;4878523;28;123562;-90
2022/05/27 07:21:07;;;;;;;2.70;1.70;;;17.80;79.60;;;18.21;51.92;99229.06;4863484;28;123972;-91
2022/05/27 07:23:34;;;;;;;2.60;2.23;;;17.80;79.70;;;18.15;51.92;99222.91;4882621;28;113655;-92
2022/05/27 07:26:02;;;;;;;2.50;1.70;;;17.70;79.80;;;18.13;52.07;99230.84;4879595;28;113227;-91
2022/05/27 07:28:48;;;;;;;2.90;1.97;;;17.70;80.20;;;18.08;51.98;99240.31;4881543;28;124023;-91
2022/05/27 07:31:17;;;;;;;3.47;2.10;;;17.60;80.10;;;18.03;52.26;99237.75;4863006;29;123010;-92
2022/05/27 07:33:46;;;;;;;3.87;2.00;;;17.60;80.30;;;17.99;52.43;99236.81;4868379;28;114348;-91
2022/05/27 07:36:19;;;;;;;6.13;2.03;;;17.60;80.40;;;17.97;52.52;99227.94;4882419;28;113335;-92
2022/05/27 07:38:47;;;;;;;2.37;1.87;;;17.60;80.70;;;17.97;52.44;99230.75;4902791;28;123825;-92
2022/05/27 07:41:13;;;;;;;3.20;2.23;;;17.50;80.60;;;17.95;52.64;99247.06;4901613;28;122921;-90
2022/05/27 07:44:18;;;;;;;3.00;2.00;;;17.50;80.70;;;17.88;52.65;99230.06;4884245;28;113146;-91
2022/05/27 07:46:51;;;;;;;2.50;1.77;;;17.50;80.80;;;17.89;52.78;99237.28;4887847;28;113674;-91
2022/05/27 07:49:39;;;;;;;3.20;1.83;;;17.50;80.90;;;17.92;52.80;99247.78;4866863;28;123536;-91
2022/05/27 07:52:06;;;;;;;2.00;1.80;;;17.50;81.00;;;17.95;52.89;99244.28;4880848;28;123431;-90
2022/05/27 07:54:36;;;;;;;2.43;2.00;;;17.50;81.30;;;17.98;52.83;99246.38;4862222;28;115392;-90
2022/05/27 07:57:23;;;;;;;2.73;1.97;;;17.50;81.40;;;18.02;52.83;99249.25;4859721;29;114337;-91
2022/05/27 07:59:54;;;;;;;3.67;2.60;;;17.60;81.40;;;18.02;52.82;99250.06;4856405;29;124462;-91
2022/05/27 08:02:39;;;;;;;2.17;1.77;;;17.60;81.50;;;18.04;52.68;99255.31;4867905;28;123497;-91
2022/05/27 08:05:10;;;;;;;3.67;2.20;;;17.60;81.40;;;18.05;52.79;99241.00;4875242;28;114573;-91
2022/05/27 08:07:36;;;;;;;3.10;2.10;;;17.60;81.40;;;18.09;52.64;99239.13;4858711;28;114362;-89
2022/05/27 08:10:05;;;;;;;2.80;1.80;;;17.60;82.10;;;18.12;52.45;99245.19;4865159;28;123091;-92
2022/05/27 08:12:33;;;;;;;1.87;1.67;;;17.60;81.50;;;18.14;52.73;99242.84;4842796;28;123059;-92
2022/05/27 08:15:01;;;;;;;3.17;2.10;;;16.80;81.20;;;18.19;52.49;99242.59;4843197;29;113297;-93
2022/05/27 08:17:29;;;;;;;2.53;1.87;;;17.70;81.40;;;18.23;52.31;99241.53;4874896;28;113228;-92
2022/05/27 08:20:36;;;;;;;1.87;1.67;;;17.70;81.30;;;18.29;52.29;99244.91;4857737;28;121891;-91
2022/05/27 08:23:03;;;;;;;2.17;1.77;;;17.80;81.40;;;18.34;52.40;99247.47;4870717;28;123997;-89
2022/05/27 08:25:30;;;;;;;2.60;2.20;;;17.80;81.50;;;18.35;52.31;99246.31;4869785;28;114634;-89
2022/05/27 08:27:57;;;;;;;3.70;1.70;;;17.90;81.40;;;18.35;52.29;99237.91;4860749;28;113479;-90
2022/05/27 08:30:29;;;;;;;2.37;1.77;;;17.90;81.30;;;18.37;52.21;99243.94;4866972;28;123352;-90
2022/05/27 08:32:57;;;;;;;2.73;1.60;;;17.80;81.20;;;18.42;52.15;99254.09;4867675;28;123924;-90
2022/05/27 08:38:29;;;;;;;3.50;1.80;;;17.90;81.20;;;18.43;52.42;99258.50;4862760;28;116143;-89
2022/05/27 08:41:19;;;;;;;2.00;1.70;;;17.90;81.10;;;18.45;52.23;99258.97;4853064;28;124178;-89
2022/05/27 08:43:50;;;;;;;2.70;1.70;;;18.00;81.40;;;18.44;52.27;99255.38;4874047;28;123236;-91
2022/05/27 08:46:57;;;;;;;1.73;1.63;;;17.90;81.20;;;18.42;52.28;99263.28;4868256;28;114424;-90
2022/05/27 08:49:52;;;;;;;1.83;1.70;;;18.00;81.40;;;18.42;52.36;99262.47;4859858;28;114921;-91
2022/05/27 08:52:37;;;;;;;3.30;2.20;;;18.00;81.50;;;18.45;52.11;99261.78;4863207;28;123817;-91
2022/05/27 09:01:35;;;;;;;3.40;2.17;;;18.00;81.50;;;18.51;52.23;99263.97;4858168;28;114417;-93
2022/05/27 09:04:17;;;;;;;3.03;1.87;;;18.00;81.50;;;18.52;52.18;99256.41;4875460;28;124692;-92
2022/05/27 09:06:52;;;;;;;2.57;2.20;;;18.00;81.50;;;18.52;52.37;99268.41;4877076;28;123114;-90
2022/05/27 09:09:28;;;;;;;2.33;1.77;;;18.70;82.10;;;18.54;52.09;99263.28;4874793;28;113706;-90
2022/05/27 09:12:36;;;;;;;2.87;1.80;;;18.10;81.40;;;18.59;52.10;99258.56;4860118;28;113569;-90
2022/05/27 09:15:23;;;;;;;4.00;2.10;;;18.10;81.30;;;18.58;51.84;99245.75;4857965;28;123552;-92
2022/05/27 09:17:59;;;;;;;2.47;2.10;;;18.10;80.90;;;18.63;51.71;99259.50;4862201;28;121860;-91
2022/05/27 09:21:07;;;;;;;1.60;1.50;;;18.10;80.90;;;18.71;51.58;99245.38;4857862;28;113896;-91
2022/05/27 09:23:54;;;;;;;2.07;1.73;;;18.20;80.80;;;18.83;51.24;99236.13;4840583;29;112461;-91
2022/05/27 09:26:29;;;;;;;2.43;1.90;;;18.30;80.70;;;18.93;50.49;99244.00;4858313;29;124229;-92
2022/05/27 09:30:05;;;;;;;3.63;1.80;;;18.40;80.10;;;18.98;50.26;99252.16;4866381;28;122807;-92
2022/05/27 09:32:54;;;;;;;5.23;2.23;;;18.50;79.30;;;19.03;50.03;99236.28;4842883;29;113068;-91
2022/05/27 09:35:42;;;;;;;2.90;2.13;;;18.50;78.70;;;19.08;49.88;99239.63;4841541;29;112698;-91
2022/05/27 09:38:24;;;;;;;2.30;1.97;;;18.60;78.80;;;19.18;49.66;99241.91;4843349;29;123111;-90
2022/05/27 09:40:58;;;;;;;2.87;2.10;;;18.70;78.10;;;19.25;48.97;99232.88;4811634;29;122838;-92
2022/05/27 09:44:09;;;;;;;2.27;1.90;;;18.70;77.50;;;19.28;48.89;99222.94;4826037;29;114914;-90
2022/05/27 09:46:57;;;;;;;3.73;2.10;;;18.80;77.10;;;19.35;48.62;99232.34;4819129;29;114934;-92
2022/05/27 09:49:24;;;;;;;2.67;1.50;;;18.90;77.00;;;19.46;48.61;99235.41;4819479;29;123740;-91
2022/05/27 09:51:52;;;;;;;2.00;1.80;;;19.00;77.10;;;19.54;48.25;99236.41;4804332;29;122519;-91
2022/05/27 09:54:59;;;;;;;1.67;1.57;;;19.00;76.60;;;19.59;47.40;99239.75;4790536;29;112491;-91
2022/05/27 09:57:30;;;;;;;4.93;2.10;;;19.10;75.70;;;19.62;47.22;99229.81;4802021;29;113527;-92
2022/05/27 10:00:00;;;;;;;4.03;1.80;;;19.10;75.30;;;19.68;47.57;99225.56;4803075;29;122273;-93
2022/05/27 10:02:30;;;;;;;2.03;1.67;;;19.20;75.50;;;19.78;47.64;99216.63;4814790;29;122868;-91
2022/05/27 10:05:00;;;;;;;2.83;1.80;;;19.30;75.60;;;19.90;47.26;99217.69;4821095;29;112228;-91
2022/05/27 10:07:34;;;;;;;10.03;1.80;;;19.40;75.40;;;19.96;46.63;99214.25;4801526;29;113465;-93
2022/05/27 10:10:36;;;;;;;1.93;1.63;;;19.40;74.10;;;19.93;45.82;99198.13;4833837;29;123771;-92
2022/05/27 10:13:34;;;;;;;1.90;1.70;;;19.50;72.60;;;19.93;45.72;99200.91;4800471;29;123077;-92
2022/05/27 10:16:25;;;;;;;2.90;1.67;;;19.50;72.30;;;19.94;45.57;99196.16;4802487;29;113861;-91
2022/05/27 10:19:13;;;;;;;4.23;1.70;;;19.50;72.20;;;19.99;45.54;99187.47;4807080;29;113417;-92
2022/05/27 10:21:54;;;;;;;1.90;1.70;;;19.60;72.00;;;20.06;45.16;99196.00;4815934;29;124016;-91
2022/05/27 10:24:32;;;;;;;1.53;1.40;;;19.60;71.90;;;20.13;45.27;99184.97;4868638;28;123859;-93
2022/05/27 10:27:17;;;;;;;2.13;1.70;;;19.60;71.70;;;20.23;44.92;99180.75;4862691;28;114477;-93
2022/05/27 10:29:59;;;;;;;2.07;1.80;;;19.70;71.10;;;20.30;44.68;99186.53;4863659;28;113962;-92
2022/05/27 10:32:42;;;;;;;2.53;1.67;;;19.80;70.90;;;20.37;44.20;99185.88;4847332;28;123845;-91
2022/05/27 10:35:31;;;;;;;2.23;1.93;;;19.80;70.60;;;20.47;44.28;99186.09;4859450;28;123622;-93
2022/05/27 10:38:41;;;;;;;2.07;1.77;;;20.00;70.90;;;20.49;43.77;99178.09;4880444;28;115298;-93
2022/05/27 10:41:08;;;;;;;2.27;1.47;;;20.00;69.40;;;20.51;43.60;99174.94;4881701;28;114136;-93
2022/05/27 10:44:25;;;;;;;1.93;1.73;;;20.10;69.00;;;20.55;42.70;99161.78;4872614;28;123342;-92
2022/05/27 10:46:57;;;;;;;1.47;1.37;;;20.10;68.00;;;20.65;42.55;99178.03;4871998;28;123910;-92
2022/05/27 10:49:57;;;;;;;3.30;1.30;;;20.10;67.80;;;20.72;42.51;99157.72;4868643;28;114587;-92
2022/05/27 10:53:17;;;;;;;2.07;1.60;;;20.30;67.50;;;20.75;41.72;99165.41;4856484;28;113880;-91
2022/05/27 10:56:35;;;;;;;1.73;1.40;;;20.30;66.40;;;20.79;41.90;99159.84;4844713;28;124230;-93
2022/05/27 11:03:10;;;;;;;2.97;1.30;;;20.40;65.80;;;20.77;41.59;99163.06;4801550;29;114715;-89
2022/05/27 11:06:12;;;;;;;2.30;1.30;;;20.40;65.50;;;20.73;41.32;99162.97;4784629;29;114128;-90
2022/05/27 11:08:59;;;;;;;1.67;1.47;;;20.30;65.20;;;20.72;41.59;99166.97;4810235;29;123982;-92
2022/05/27 11:11:57;;;;;;;1.50;1.10;;;20.30;65.20;;;20.73;41.53;99168.56;4819928;29;123833;-92
2022/05/27 11:15:10;;;;;;;1.87;1.33;;;20.30;65.40;;;20.72;42.18;99158.53;4801797;29;113643;-91
2022/05/27 11:17:46;;;;;;;1.97;1.47;;;20.30;65.50;;;20.76;41.88;99163.41;4818441;29;113850;-93
2022/05/27 11:20:39;;;;;;;1.40;1.27;;;20.30;65.50;;;20.78;41.77;99161.03;4816106;29;123033;-91
2022/05/27 11:23:05;;;;;;;2.47;1.40;;;20.30;65.60;;;20.77;41.72;99153.78;4817868;29;123112;-93
2022/05/27 11:26:19;;;;;;;1.40;1.30;;;20.30;65.30;;;20.73;41.82;99151.72;4818679;29;114384;-92
2022/05/27 11:29:04;;;;;;;3.20;1.67;;;20.40;66.10;;;20.73;41.84;99151.72;4793292;29;112863;-93
2022/05/27 11:31:52;;;;;;;1.53;1.37;;;20.40;65.30;;;20.76;41.94;99143.75;4841074;29;124341;-92
2022/05/27 11:35:20;;;;;;;1.93;1.30;;;20.40;65.30;;;20.79;42.01;99149.41;4836783;29;123016;-93
2022/05/27 11:38:01;;;;;;;3.40;1.60;;;20.40;65.30;;;20.85;41.46;99133.91;4758920;29;114286;-92
2022/05/27 11:40:47;;;;;;;1.43;1.30;;;20.40;65.30;;;20.90;41.89;99130.78;4798153;29;115054;-92
2022/05/27 11:43:44;;;;;;;2.10;1.10;;;20.40;65.40;;;20.98;41.84;99139.34;4781936;29;122434;-91
2022/05/27 11:46:44;;;;;;;2.23;1.50;;;20.50;65.20;;;20.95;41.12;99135.28;4795719;29;124368;-92
2022/05/27 11:49:32;;;;;;;1.70;1.40;;;20.60;64.90;;;20.95;41.29;99124.88;4798853;29;114771;-93
2022/05/27 11:52:56;;;;;;;3.50;1.50;;;20.60;65.10;;;20.97;41.97;99118.84;4800706;29;114155;-94
2022/05/27 11:55:43;;;;;;;1.63;1.53;;;20.60;65.20;;;21.05;41.63;99120.59;4752139;29;125798;-92
2022/05/27 11:58:22;;;;;;;1.30;1.20;;;20.60;65.50;;;21.15;41.66;99117.19;4762215;29;123517;-93
2022/05/27 12:01:23;;;;;;;2.37;1.13;;;20.70;65.70;;;21.24;41.61;99105.66;4744491;29;113928;-94
2022/05/27 12:04:23;;;;;;;2.87;1.37;;;20.80;65.70;;;21.31;41.68;99100.16;4747499;29;113340;-91
2022/05/27 12:07:31;;;;;;;1.30;1.13;;;20.80;65.70;;;21.37;41.74;99095.88;4747185;29;123413;-92
2022/05/27 12:10:08;;;;;;;2.23;1.30;;;20.90;65.80;;;21.50;42.01;99093.66;4759855;29;124236;-93
2022/05/27 12:13:06;;;;;;;2.03;1.17;;;20.90;65.90;;;21.62;41.50;99101.88;4784791;29;114178;-93
2022/05/27 12:16:02;;;;;;;5.70;1.77;;;21.10;66.00;;;21.71;41.51;99086.72;4783542;29;114295;-93
2022/05/27 12:18:42;;;;;;;1.87;1.30;;;21.20;65.70;;;21.77;40.88;99073.97;4787234;29;124321;-92
2022/05/27 12:21:24;;;;;;;2.90;1.50;;;21.20;65.30;;;21.84;40.81;99079.66;4784392;29;123747;-93
2022/05/27 12:23:58;;;;;;;1.60;1.30;;;21.20;65.10;;;21.87;40.88;99076.13;4783277;29;113902;-92
2022/05/27 12:26:43;;;;;;;3.07;1.53;;;21.30;64.40;;;21.91;40.53;99079.78;4834244;28;113061;-92
2022/05/27 12:29:13;;;;;;;1.23;1.13;;;21.40;64.30;;;22.01;40.91;99076.28;4880401;28;122807;-92
2022/05/27 12:31:42;;;;;;;1.40;1.20;;;21.50;64.60;;;22.15;40.47;99092.53;4869018;28;121731;-94
2022/05/27 12:34:27;;;;;;;1.50;1.30;;;21.60;64.50;;;22.34;40.65;99080.31;4868189;28;116634;-93
2022/05/27 12:36:58;;;;;;;1.93;1.30;;;21.80;64.30;;;22.48;40.04;99074.84;4876524;28;114808;-92
2022/05/27 12:39:28;;;;;;;1.70;1.50;;;21.90;64.00;;;22.62;39.72;99084.63;4859488;28;123913;-94
2022/05/27 12:42:24;;;;;;;1.93;1.10;;;22.00;63.70;;;22.69;39.92;99073.47;4873123;28;123197;-94
2022/05/27 12:44:52;;;;;;;1.30;1.20;;;22.10;63.60;;;22.72;39.80;99078.31;4869370;28;113572;-92
2022/05/27 12:47:35;;;;;;;1.90;1.40;;;22.20;63.50;;;22.72;39.89;99076.28;4858500;28;113811;-92
2022/05/27 12:50:06;;;;;;;1.60;1.50;;;22.20;63.40;;;22.74;40.00;99073.09;4875410;28;123135;-93
2022/05/27 12:52:32;;;;;;;1.27;1.17;;;22.30;63.60;;;22.76;39.88;99070.72;4871181;28;123692;-91
2022/05/27 12:55:12;;;;;;;1.90;1.30;;;22.30;63.40;;;22.72;39.84;99073.47;4873090;28;114704;-90
2022/05/27 13:03:33;;;;;;;1.37;1.27;;;22.20;63.00;;;22.64;40.22;99065.34;4875648;28;124664;-92
2022/05/27 13:06:17;;;;;;;1.40;1.27;;;22.20;63.20;;;22.62;40.06;99067.75;4871455;28;114881;-91
2022/05/27 13:09:09;;;;;;;1.30;1.10;;;22.20;63.20;;;22.60;40.12;99058.88;4875565;28;113778;-92
2022/05/27 13:11:37;;;;;;;1.77;1.30;;;22.20;63.40;;;22.60;40.21;99064.53;4875282;28;123261;-92
2022/05/27 13:14:19;;;;;;;2.10;1.17;;;22.20;64.30;;;22.64;40.36;99059.72;4872578;28;123669;-92
2022/05/27 13:17:23;;;;;;;3.00;1.60;;;22.20;63.70;;;22.63;40.03;99063.75;4871303;28;113084;-92
2022/05/27 13:20:04;;;;;;;4.40;1.97;;;22.20;63.70;;;22.61;39.88;99071.75;4851849;28;113039;-91
2022/05/27 13:22:36;;;;;;;1.77;1.20;;;22.20;63.40;;;22.57;40.09;99059.63;4877315;28;124133;-92
2022/05/27 13:25:20;;;;;;;2.23;1.40;;;22.10;63.10;;;22.53;40.01;99059.63;4876952;28;122233;-91
2022/05/27 13:27:58;;;;;;;1.37;1.17;;;22.10;62.80;;;22.51;40.15;99067.63;4873510;28;115125;-93
2022/05/27 13:31:05;;;;;;;4.00;1.27;;;22.00;62.80;;;22.47;40.11;99070.41;4859323;28;113267;-94
2022/05/27 13:33:35;;;;;;;2.93;1.60;;;22.00;62.80;;;22.49;39.93;99061.59;4872252;28;123360;-91
2022/05/27 13:36:16;;;;;;;1.93;1.10;;;22.10;63.00;;;22.52;39.98;99077.72;4854980;29;121672;-91